createdAt,value
2017-12-31T00:00:24.059Z,997.7
2017-12-31T00:01:04.610Z,997.75
2017-12-31T00:01:45.173Z,997.75
2017-12-31T00:02:25.752Z,997.76
2017-12-31T00:03:06.318Z,997.76
2017-12-31T00:03:46.869Z,997.72
2017-12-31T00:04:27.426Z,997.81
2017-12-31T00:05:07.968Z,997.74
2017-12-31T00:05:48.508Z,997.76
2017-12-31T00:06:29.085Z,997.73
2017-12-31T00:07:09.660Z,997.79
2017-12-31T00:07:50.236Z,997.65
2017-12-31T00:08:30.754Z,997.66
2017-12-31T00:09:11.298Z,997.7
2017-12-31T00:09:51.831Z,997.78
2017-12-31T00:10:32.386Z,997.74
2017-12-31T00:11:12.942Z,997.81
2017-12-31T00:11:53.471Z,997.7
2017-12-31T00:12:34.016Z,997.77
2017-12-31T00:13:14.583Z,997.71
2017-12-31T00:13:55.104Z,997.82
2017-12-31T00:14:35.669Z,997.77
2017-12-31T00:15:16.227Z,997.81
2017-12-31T00:15:56.778Z,997.81
2017-12-31T00:16:37.348Z,997.86
2017-12-31T00:17:17.865Z,997.8
2017-12-31T00:17:58.432Z,997.67
2017-12-31T00:18:38.970Z,997.83
2017-12-31T00:19:19.528Z,997.79
2017-12-31T00:20:00.089Z,997.81
2017-12-31T00:20:40.616Z,997.77
2017-12-31T00:21:21.167Z,997.83
2017-12-31T00:22:01.745Z,997.81
2017-12-31T00:22:42.279Z,997.84
2017-12-31T00:23:22.847Z,997.8
2017-12-31T00:24:03.402Z,997.82
2017-12-31T00:24:43.948Z,997.78
2017-12-31T00:25:24.497Z,997.81
2017-12-31T00:26:05.069Z,997.85
2017-12-31T00:26:45.618Z,997.87
2017-12-31T00:27:26.154Z,997.92
2017-12-31T00:28:06.685Z,997.88
2017-12-31T00:28:47.267Z,997.93
2017-12-31T00:29:27.818Z,997.83
2017-12-31T00:30:08.366Z,997.83
2017-12-31T00:30:48.931Z,997.88
2017-12-31T00:31:29.487Z,997.87
2017-12-31T00:32:10.003Z,997.88
2017-12-31T00:32:50.558Z,997.9
2017-12-31T00:33:31.113Z,997.86
2017-12-31T00:34:11.661Z,997.85
2017-12-31T00:34:52.220Z,997.88
2017-12-31T00:35:32.775Z,997.89
2017-12-31T00:36:13.349Z,997.84
2017-12-31T00:36:53.888Z,997.92
2017-12-31T00:37:34.426Z,997.96
2017-12-31T00:38:14.963Z,997.84
2017-12-31T00:38:55.499Z,997.8
2017-12-31T00:39:36.077Z,997.97
2017-12-31T00:40:16.633Z,997.95
2017-12-31T00:40:57.203Z,998.06
2017-12-31T00:41:37.753Z,997.98
2017-12-31T00:42:18.277Z,997.94
2017-12-31T00:42:58.849Z,998.03
2017-12-31T00:43:39.394Z,997.96
2017-12-31T00:44:19.945Z,997.92
2017-12-31T00:45:00.517Z,997.94
2017-12-31T00:45:41.067Z,998.04
2017-12-31T00:46:21.611Z,997.96
2017-12-31T00:47:02.188Z,998.03
2017-12-31T00:47:42.751Z,998
2017-12-31T00:48:23.301Z,998.05
2017-12-31T00:49:03.849Z,998.08
2017-12-31T00:49:44.384Z,998.11
2017-12-31T00:50:24.924Z,998.09
2017-12-31T00:51:05.489Z,998.06
2017-12-31T00:51:46.053Z,998.11
2017-12-31T00:52:26.616Z,998.06
2017-12-31T00:53:07.171Z,998.09
2017-12-31T00:53:47.712Z,998.11
2017-12-31T00:54:28.271Z,998.16
2017-12-31T00:55:08.829Z,998.12
2017-12-31T00:55:49.364Z,998.18
2017-12-31T00:56:29.915Z,998.1
2017-12-31T00:57:10.474Z,998.13
2017-12-31T00:57:51.036Z,998.17
2017-12-31T00:58:31.582Z,998.13
2017-12-31T00:59:12.114Z,998.2
2017-12-31T00:59:52.690Z,998.14
2017-12-31T01:00:33.256Z,998.15
2017-12-31T01:01:13.786Z,998.14
2017-12-31T01:01:54.327Z,998.15
2017-12-31T01:02:34.861Z,998.12
2017-12-31T01:03:15.411Z,998.15
2017-12-31T01:03:55.956Z,998.12
2017-12-31T01:04:36.497Z,998.11
2017-12-31T01:05:17.042Z,998.12
2017-12-31T01:05:57.603Z,998.12
2017-12-31T01:06:38.183Z,998.15
2017-12-31T01:07:18.719Z,998.19
2017-12-31T01:07:59.286Z,998.1
2017-12-31T01:08:39.871Z,998.12
2017-12-31T01:09:20.413Z,998.1
2017-12-31T01:10:00.957Z,998.13
2017-12-31T01:10:41.514Z,998.08
2017-12-31T01:11:22.080Z,998.07
2017-12-31T01:12:02.620Z,998.07
2017-12-31T01:12:43.182Z,998.1
2017-12-31T01:13:23.717Z,998.11
2017-12-31T01:14:04.272Z,998.12
2017-12-31T01:14:44.821Z,998.1
2017-12-31T01:15:25.340Z,998.15
2017-12-31T01:16:05.914Z,998.17
2017-12-31T01:16:46.474Z,998.13
2017-12-31T01:17:26.990Z,998.08
2017-12-31T01:18:07.553Z,998.06
2017-12-31T01:18:48.103Z,998.14
2017-12-31T01:19:28.653Z,998.14
2017-12-31T01:20:09.216Z,998.12
2017-12-31T01:20:49.789Z,998.13
2017-12-31T01:21:30.299Z,998.12
2017-12-31T01:22:10.874Z,998.07
2017-12-31T01:22:51.420Z,998.08
2017-12-31T01:23:31.972Z,998.12
2017-12-31T01:24:12.535Z,998.1
2017-12-31T01:24:53.073Z,998.11
2017-12-31T01:25:33.641Z,998.09
2017-12-31T01:26:14.195Z,998.01
2017-12-31T01:26:54.757Z,998.06
2017-12-31T01:27:35.290Z,998.06
2017-12-31T01:28:15.821Z,998.03
2017-12-31T01:28:56.351Z,997.97
2017-12-31T01:29:36.887Z,997.98
2017-12-31T01:30:17.454Z,998.04
2017-12-31T01:30:57.994Z,998.05
2017-12-31T01:31:38.569Z,998.04
2017-12-31T01:32:19.114Z,998.01
2017-12-31T01:32:59.723Z,997.99
2017-12-31T01:33:40.225Z,997.97
2017-12-31T01:34:20.769Z,997.99
2017-12-31T01:35:01.324Z,998.01
2017-12-31T01:35:41.854Z,998.05
2017-12-31T01:36:22.427Z,998.04
2017-12-31T01:37:02.960Z,998.02
2017-12-31T01:37:43.523Z,998.02
2017-12-31T01:38:24.090Z,998.04
2017-12-31T01:39:04.636Z,998
2017-12-31T01:39:45.164Z,998.01
2017-12-31T01:40:25.713Z,998.01
2017-12-31T01:41:06.268Z,998.07
2017-12-31T01:41:46.825Z,998.01
2017-12-31T01:42:27.376Z,998.02
2017-12-31T01:43:07.912Z,997.98
2017-12-31T01:43:48.481Z,998.03
2017-12-31T01:44:29.048Z,998
2017-12-31T01:45:09.620Z,998.04
2017-12-31T01:45:50.143Z,998.06
2017-12-31T01:46:30.682Z,998.14
2017-12-31T01:47:11.244Z,998.07
2017-12-31T01:47:51.765Z,998.05
2017-12-31T01:48:32.300Z,998.07
2017-12-31T01:49:12.906Z,998.03
2017-12-31T01:49:53.429Z,998.04
2017-12-31T01:50:33.986Z,998.01
2017-12-31T01:51:14.515Z,998.1
2017-12-31T01:51:55.293Z,998.11
2017-12-31T01:52:35.943Z,998.1
2017-12-31T01:53:16.553Z,998.1
2017-12-31T01:53:57.069Z,998.11
2017-12-31T01:54:37.578Z,998.07
2017-12-31T01:55:18.318Z,998.1
2017-12-31T01:55:59.547Z,998.16
2017-12-31T01:56:39.715Z,998.13
2017-12-31T01:57:20.267Z,998.11
2017-12-31T01:58:00.814Z,998.12
2017-12-31T01:58:41.822Z,998.13
2017-12-31T01:59:22.145Z,998.17
2017-12-31T02:00:02.699Z,998.19
2017-12-31T02:00:43.246Z,998.14
2017-12-31T02:01:23.824Z,998.17
2017-12-31T02:02:04.351Z,998.21
2017-12-31T02:02:44.958Z,998.22
2017-12-31T02:03:25.519Z,998.19
2017-12-31T02:04:06.049Z,998.25
2017-12-31T02:04:46.609Z,998.23
2017-12-31T02:05:27.135Z,998.13
2017-12-31T02:06:07.710Z,998.17
2017-12-31T02:06:48.217Z,998.2
2017-12-31T02:07:28.731Z,998.15
2017-12-31T02:08:09.310Z,998.17
2017-12-31T02:08:49.824Z,998.15
2017-12-31T02:09:30.361Z,998.2
2017-12-31T02:10:10.919Z,998.21
2017-12-31T02:10:51.468Z,998.12
2017-12-31T02:11:32.029Z,998.14
2017-12-31T02:12:12.561Z,998.16
2017-12-31T02:12:53.138Z,998.21
2017-12-31T02:13:33.629Z,998.2
2017-12-31T02:14:14.182Z,998.17
2017-12-31T02:14:54.730Z,998.17
2017-12-31T02:15:35.282Z,998.16
2017-12-31T02:16:15.874Z,998.2
2017-12-31T02:16:56.348Z,998.21
2017-12-31T02:17:36.910Z,998.25
2017-12-31T02:18:17.476Z,998.12
2017-12-31T02:18:58.015Z,998.21
2017-12-31T02:19:38.581Z,998.19
2017-12-31T02:20:19.130Z,998.24
2017-12-31T02:20:59.684Z,998.26
2017-12-31T02:21:40.233Z,998.29
2017-12-31T02:22:20.778Z,998.28
2017-12-31T02:23:01.364Z,998.2
2017-12-31T02:23:41.893Z,998.27
2017-12-31T02:24:22.433Z,998.31
2017-12-31T02:25:02.981Z,998.3
2017-12-31T02:25:43.535Z,998.38
2017-12-31T02:26:24.072Z,998.33
2017-12-31T02:27:04.625Z,998.35
2017-12-31T02:27:45.204Z,998.34
2017-12-31T02:28:25.726Z,998.29
2017-12-31T02:29:06.276Z,998.27
2017-12-31T02:29:46.836Z,998.26
2017-12-31T02:30:27.398Z,998.34
2017-12-31T02:31:08.030Z,998.3
2017-12-31T02:31:48.583Z,998.32
2017-12-31T02:32:29.144Z,998.31
2017-12-31T02:33:09.729Z,998.36
2017-12-31T02:33:50.588Z,998.3
2017-12-31T02:34:31.365Z,998.29
2017-12-31T02:35:11.975Z,998.28
2017-12-31T02:35:52.596Z,998.31
2017-12-31T02:36:33.103Z,998.27
2017-12-31T02:37:13.768Z,998.29
2017-12-31T02:37:54.214Z,998.34
2017-12-31T02:38:34.766Z,998.29
2017-12-31T02:39:15.356Z,998.31
2017-12-31T02:39:55.916Z,998.29
2017-12-31T02:40:36.528Z,998.26
2017-12-31T02:41:17.056Z,998.29
2017-12-31T02:41:57.588Z,998.33
2017-12-31T02:42:38.106Z,998.28
2017-12-31T02:43:18.624Z,998.29
2017-12-31T02:43:59.180Z,998.25
2017-12-31T02:44:39.708Z,998.19
2017-12-31T02:45:20.247Z,998.22
2017-12-31T02:46:00.847Z,998.2
2017-12-31T02:46:41.396Z,998.23
2017-12-31T02:47:21.936Z,998.28
2017-12-31T02:48:02.504Z,998.28
2017-12-31T02:48:43.029Z,998.24
2017-12-31T02:49:23.596Z,998.28
2017-12-31T02:50:04.170Z,998.3
2017-12-31T02:50:45.219Z,998.35
2017-12-31T02:51:25.753Z,998.29
2017-12-31T02:52:06.430Z,998.34
2017-12-31T02:52:46.967Z,998.29
2017-12-31T02:53:27.504Z,998.34
2017-12-31T02:54:08.057Z,998.3
2017-12-31T02:54:48.657Z,998.32
2017-12-31T02:55:29.187Z,998.25
2017-12-31T02:56:09.740Z,998.31
2017-12-31T02:56:50.288Z,998.3
2017-12-31T02:57:30.837Z,998.3
2017-12-31T02:58:11.377Z,998.32
2017-12-31T02:58:51.904Z,998.25
2017-12-31T02:59:32.467Z,998.29
2017-12-31T03:00:12.981Z,998.26
2017-12-31T03:00:53.509Z,998.37
2017-12-31T03:01:34.067Z,998.26
2017-12-31T03:02:14.652Z,998.32
2017-12-31T03:02:55.183Z,998.32
2017-12-31T03:03:35.764Z,998.3
2017-12-31T03:04:16.377Z,998.39
2017-12-31T03:04:56.916Z,998.33
2017-12-31T03:05:37.466Z,998.36
2017-12-31T03:06:18.020Z,998.36
2017-12-31T03:06:58.568Z,998.41
2017-12-31T03:07:39.114Z,998.45
2017-12-31T03:08:19.677Z,998.43
2017-12-31T03:09:00.201Z,998.42
2017-12-31T03:09:40.749Z,998.42
2017-12-31T03:10:21.284Z,998.37
2017-12-31T03:11:01.829Z,998.39
2017-12-31T03:11:42.393Z,998.45
2017-12-31T03:12:22.894Z,998.46
2017-12-31T03:13:03.422Z,998.4
2017-12-31T03:13:43.948Z,998.46
2017-12-31T03:14:24.523Z,998.4
2017-12-31T03:15:05.057Z,998.53
2017-12-31T03:15:45.618Z,998.48
2017-12-31T03:16:26.161Z,998.49
2017-12-31T03:17:06.726Z,998.54
2017-12-31T03:17:47.279Z,998.45
2017-12-31T03:18:27.815Z,998.52
2017-12-31T03:19:08.360Z,998.52
2017-12-31T03:19:48.895Z,998.55
2017-12-31T03:20:29.428Z,998.56
2017-12-31T03:21:09.959Z,998.51
2017-12-31T03:21:51.302Z,998.49
2017-12-31T03:22:31.840Z,998.52
2017-12-31T03:23:12.375Z,998.57
2017-12-31T03:23:52.945Z,998.59
2017-12-31T03:24:33.502Z,998.52
2017-12-31T03:25:14.056Z,998.53
2017-12-31T03:25:54.616Z,998.54
2017-12-31T03:26:35.165Z,998.65
2017-12-31T03:27:15.710Z,998.59
2017-12-31T03:27:56.268Z,998.52
2017-12-31T03:28:36.802Z,998.68
2017-12-31T03:29:17.364Z,998.58
2017-12-31T03:29:57.925Z,998.5
2017-12-31T03:30:38.463Z,998.53
2017-12-31T03:31:18.998Z,998.6
2017-12-31T03:31:59.547Z,998.58
2017-12-31T03:32:40.089Z,998.58
2017-12-31T03:33:20.641Z,998.62
2017-12-31T03:34:01.198Z,998.43
2017-12-31T03:34:41.820Z,998.55
2017-12-31T03:35:22.314Z,998.57
2017-12-31T03:36:02.823Z,998.52
2017-12-31T03:36:43.389Z,998.57
2017-12-31T03:37:23.935Z,998.63
2017-12-31T03:38:04.500Z,998.54
2017-12-31T03:38:45.071Z,998.58
2017-12-31T03:39:25.577Z,998.44
2017-12-31T03:40:06.140Z,998.52
2017-12-31T03:40:46.685Z,998.46
2017-12-31T03:41:27.239Z,998.47
2017-12-31T03:42:07.776Z,998.43
2017-12-31T03:42:48.349Z,998.51
2017-12-31T03:43:28.894Z,998.51
2017-12-31T03:44:09.456Z,998.46
2017-12-31T03:44:49.976Z,998.49
2017-12-31T03:45:30.527Z,998.47
2017-12-31T03:46:11.094Z,998.45
2017-12-31T03:46:51.664Z,998.45
2017-12-31T03:47:32.238Z,998.42
2017-12-31T03:48:12.800Z,998.47
2017-12-31T03:48:53.343Z,998.47
2017-12-31T03:49:33.904Z,998.47
2017-12-31T03:50:14.455Z,998.45
2017-12-31T03:50:54.988Z,998.45
2017-12-31T03:51:35.560Z,998.48
2017-12-31T03:52:16.101Z,998.39
2017-12-31T03:52:56.668Z,998.43
2017-12-31T03:53:37.211Z,998.44
2017-12-31T03:54:17.757Z,998.49
2017-12-31T03:54:58.316Z,998.45
2017-12-31T03:55:38.884Z,998.43
2017-12-31T03:56:19.448Z,998.54
2017-12-31T03:57:00.013Z,998.48
2017-12-31T03:57:40.559Z,998.47
2017-12-31T03:58:21.116Z,998.48
2017-12-31T03:59:01.671Z,998.51
2017-12-31T03:59:42.219Z,998.46
2017-12-31T04:00:22.786Z,998.49
2017-12-31T04:01:03.348Z,998.48
2017-12-31T04:01:43.888Z,998.51
2017-12-31T04:02:24.422Z,998.56
2017-12-31T04:03:04.967Z,998.48
2017-12-31T04:03:45.521Z,998.51
2017-12-31T04:04:26.073Z,998.52
2017-12-31T04:05:06.625Z,998.57
2017-12-31T04:05:47.174Z,998.54
2017-12-31T04:06:27.719Z,998.48
2017-12-31T04:07:08.264Z,998.55
2017-12-31T04:07:48.812Z,998.52
2017-12-31T04:08:29.351Z,998.53
2017-12-31T04:09:09.929Z,998.63
2017-12-31T04:09:50.489Z,998.59
2017-12-31T04:10:31.066Z,998.53
2017-12-31T04:11:11.578Z,998.6
2017-12-31T04:11:52.118Z,998.58
2017-12-31T04:12:32.638Z,998.61
2017-12-31T04:13:13.222Z,998.58
2017-12-31T04:13:53.751Z,998.54
2017-12-31T04:14:34.358Z,998.52
2017-12-31T04:15:14.864Z,998.58
2017-12-31T04:15:55.417Z,998.51
2017-12-31T04:16:35.983Z,998.49
2017-12-31T04:17:16.566Z,998.54
2017-12-31T04:17:57.060Z,998.58
2017-12-31T04:18:37.634Z,998.58
2017-12-31T04:19:18.187Z,998.47
2017-12-31T04:19:58.724Z,998.48
2017-12-31T04:20:39.246Z,998.49
2017-12-31T04:21:19.842Z,998.52
2017-12-31T04:22:00.408Z,998.54
2017-12-31T04:22:41.018Z,998.57
2017-12-31T04:23:21.525Z,998.53
2017-12-31T04:24:02.054Z,998.49
2017-12-31T04:24:42.586Z,998.53
2017-12-31T04:25:23.115Z,998.47
2017-12-31T04:26:03.714Z,998.43
2017-12-31T04:26:44.243Z,998.54
2017-12-31T04:27:24.771Z,998.48
2017-12-31T04:28:05.339Z,998.54
2017-12-31T04:28:45.864Z,998.53
2017-12-31T04:29:26.419Z,998.57
2017-12-31T04:30:06.966Z,998.54
2017-12-31T04:30:47.494Z,998.62
2017-12-31T04:31:28.030Z,998.64
2017-12-31T04:32:08.568Z,998.58
2017-12-31T04:32:49.119Z,998.52
2017-12-31T04:33:29.674Z,998.54
2017-12-31T04:34:10.224Z,998.68
2017-12-31T04:34:50.756Z,998.43
2017-12-31T04:35:31.325Z,998.58
2017-12-31T04:36:11.870Z,998.57
2017-12-31T04:36:52.425Z,998.57
2017-12-31T04:37:32.993Z,998.53
2017-12-31T04:38:13.560Z,998.61
2017-12-31T04:38:54.106Z,998.54
2017-12-31T04:39:34.658Z,998.63
2017-12-31T04:40:15.216Z,998.63
2017-12-31T04:40:55.758Z,998.63
2017-12-31T04:41:36.312Z,998.63
2017-12-31T04:42:16.841Z,998.64
2017-12-31T04:42:57.425Z,998.57
2017-12-31T04:43:37.973Z,998.65
2017-12-31T04:44:18.582Z,998.64
2017-12-31T04:44:59.053Z,998.69
2017-12-31T04:45:39.641Z,998.64
2017-12-31T04:46:20.205Z,998.66
2017-12-31T04:47:00.760Z,998.68
2017-12-31T04:47:41.313Z,998.74
2017-12-31T04:48:21.853Z,998.75
2017-12-31T04:49:02.396Z,998.72
2017-12-31T04:49:42.944Z,998.78
2017-12-31T04:50:23.436Z,998.72
2017-12-31T04:51:04.023Z,998.76
2017-12-31T04:51:44.535Z,998.67
2017-12-31T04:52:25.075Z,998.77
2017-12-31T04:53:05.663Z,998.8
2017-12-31T04:53:46.206Z,998.76
2017-12-31T04:54:26.723Z,998.73
2017-12-31T04:55:07.261Z,998.71
2017-12-31T04:55:47.837Z,998.74
2017-12-31T04:56:28.369Z,998.71
2017-12-31T04:57:08.891Z,998.67
2017-12-31T04:57:49.579Z,998.71
2017-12-31T04:58:30.080Z,998.74
2017-12-31T04:59:10.617Z,998.67
2017-12-31T04:59:51.911Z,998.68
2017-12-31T05:00:31.703Z,998.7
2017-12-31T05:01:12.227Z,998.7
2017-12-31T05:01:52.727Z,998.66
2017-12-31T05:02:33.308Z,998.74
2017-12-31T05:03:13.833Z,998.63
2017-12-31T05:03:54.400Z,998.73
2017-12-31T05:04:34.945Z,998.66
2017-12-31T05:05:15.472Z,998.71
2017-12-31T05:05:56.013Z,998.74
2017-12-31T05:06:36.567Z,998.68
2017-12-31T05:07:17.090Z,998.74
2017-12-31T05:07:57.662Z,998.74
2017-12-31T05:08:38.202Z,998.72
2017-12-31T05:09:18.763Z,998.79
2017-12-31T05:09:59.270Z,998.8
2017-12-31T05:10:39.860Z,998.76
2017-12-31T05:11:20.414Z,998.72
2017-12-31T05:12:00.966Z,998.76
2017-12-31T05:12:41.551Z,998.7
2017-12-31T05:13:22.080Z,998.76
2017-12-31T05:14:02.618Z,998.64
2017-12-31T05:14:43.131Z,998.76
2017-12-31T05:15:23.698Z,998.7
2017-12-31T05:16:04.235Z,998.72
2017-12-31T05:16:44.821Z,998.73
2017-12-31T05:17:25.362Z,998.67
2017-12-31T05:18:05.924Z,998.61
2017-12-31T05:18:46.480Z,998.65
2017-12-31T05:19:27.052Z,998.62
2017-12-31T05:20:07.570Z,998.67
2017-12-31T05:20:48.112Z,998.58
2017-12-31T05:21:28.685Z,998.59
2017-12-31T05:22:09.211Z,998.6
2017-12-31T05:22:49.770Z,998.59
2017-12-31T05:23:30.328Z,998.59
2017-12-31T05:24:10.877Z,998.59
2017-12-31T05:24:51.458Z,998.54
2017-12-31T05:25:32.063Z,998.58
2017-12-31T05:26:12.638Z,998.57
2017-12-31T05:26:53.221Z,998.59
2017-12-31T05:27:33.818Z,998.57
2017-12-31T05:28:14.307Z,998.62
2017-12-31T05:28:54.895Z,998.51
2017-12-31T05:29:35.406Z,998.58
2017-12-31T05:30:15.963Z,998.56
2017-12-31T05:30:56.470Z,998.59
2017-12-31T05:31:37.048Z,998.56
2017-12-31T05:32:17.547Z,998.56
2017-12-31T05:32:58.106Z,998.71
2017-12-31T05:33:38.661Z,998.58
2017-12-31T05:34:19.183Z,998.65
2017-12-31T05:34:59.788Z,998.61
2017-12-31T05:35:40.343Z,998.56
2017-12-31T05:36:21.068Z,998.62
2017-12-31T05:37:01.640Z,998.61
2017-12-31T05:37:42.161Z,998.61
2017-12-31T05:38:22.704Z,998.67
2017-12-31T05:39:03.267Z,998.62
2017-12-31T05:39:43.799Z,998.63
2017-12-31T05:40:24.356Z,998.65
2017-12-31T05:41:04.890Z,998.57
2017-12-31T05:41:45.441Z,998.6
2017-12-31T05:42:26.006Z,998.65
2017-12-31T05:43:06.559Z,998.66
2017-12-31T05:43:47.097Z,998.71
2017-12-31T05:44:27.625Z,998.6
2017-12-31T05:45:08.166Z,998.68
2017-12-31T05:45:48.701Z,998.6
2017-12-31T05:46:29.258Z,998.59
2017-12-31T05:47:10.717Z,998.64
2017-12-31T05:47:51.277Z,998.66
2017-12-31T05:48:31.856Z,998.67
2017-12-31T05:49:12.383Z,998.69
2017-12-31T05:49:52.948Z,998.74
2017-12-31T05:50:33.502Z,998.68
2017-12-31T05:51:14.064Z,998.72
2017-12-31T05:51:54.600Z,998.65
2017-12-31T05:52:35.154Z,998.67
2017-12-31T05:53:15.683Z,998.7
2017-12-31T05:53:56.231Z,998.71
2017-12-31T05:54:36.787Z,998.72
2017-12-31T05:55:17.333Z,998.75
2017-12-31T05:55:57.905Z,998.77
2017-12-31T05:56:38.453Z,998.74
2017-12-31T05:57:19.002Z,998.75
2017-12-31T05:57:59.561Z,998.74
2017-12-31T05:58:40.097Z,998.69
2017-12-31T05:59:20.658Z,998.76
2017-12-31T06:00:01.207Z,998.85
2017-12-31T06:00:41.737Z,998.81
2017-12-31T06:01:22.289Z,998.81
2017-12-31T06:02:02.850Z,998.75
2017-12-31T06:02:43.395Z,998.78
2017-12-31T06:03:23.954Z,998.76
2017-12-31T06:04:04.512Z,998.76
2017-12-31T06:04:45.070Z,998.77
2017-12-31T06:05:25.615Z,998.78
2017-12-31T06:06:06.165Z,998.82
2017-12-31T06:06:46.705Z,998.85
2017-12-31T06:07:27.257Z,998.84
2017-12-31T06:08:07.795Z,998.77
2017-12-31T06:08:48.343Z,998.82
2017-12-31T06:09:28.908Z,998.78
2017-12-31T06:10:09.463Z,998.85
2017-12-31T06:10:50.005Z,998.76
2017-12-31T06:11:30.558Z,998.78
2017-12-31T06:12:11.118Z,998.83
2017-12-31T06:12:51.651Z,998.79
2017-12-31T06:13:32.225Z,998.78
2017-12-31T06:14:12.756Z,998.83
2017-12-31T06:14:53.307Z,998.85
2017-12-31T06:15:33.861Z,998.86
2017-12-31T06:16:14.407Z,998.86
2017-12-31T06:16:54.974Z,998.82
2017-12-31T06:17:35.517Z,998.87
2017-12-31T06:18:16.067Z,998.8
2017-12-31T06:18:56.608Z,998.84
2017-12-31T06:19:37.148Z,998.74
2017-12-31T06:20:17.703Z,998.8
2017-12-31T06:20:58.263Z,998.81
2017-12-31T06:21:38.805Z,998.72
2017-12-31T06:22:19.357Z,998.77
2017-12-31T06:22:59.904Z,998.77
2017-12-31T06:23:40.470Z,998.72
2017-12-31T06:24:21.010Z,998.66
2017-12-31T06:25:01.552Z,998.65
2017-12-31T06:25:42.096Z,998.66
2017-12-31T06:26:22.674Z,998.61
2017-12-31T06:27:03.216Z,998.62
2017-12-31T06:27:43.760Z,998.59
2017-12-31T06:28:24.321Z,998.59
2017-12-31T06:29:04.888Z,998.52
2017-12-31T06:29:45.434Z,998.56
2017-12-31T06:30:25.966Z,998.6
2017-12-31T06:31:06.510Z,998.54
2017-12-31T06:31:47.053Z,998.57
2017-12-31T06:32:27.634Z,998.62
2017-12-31T06:33:08.153Z,998.59
2017-12-31T06:33:48.739Z,998.61
2017-12-31T06:34:29.284Z,998.66
2017-12-31T06:35:09.861Z,998.62
2017-12-31T06:35:50.387Z,998.64
2017-12-31T06:36:30.936Z,998.63
2017-12-31T06:37:11.488Z,998.61
2017-12-31T06:37:52.030Z,998.72
2017-12-31T06:38:32.584Z,998.67
2017-12-31T06:39:13.124Z,998.65
2017-12-31T06:39:53.685Z,998.67
2017-12-31T06:40:34.242Z,998.66
2017-12-31T06:41:14.791Z,998.68
2017-12-31T06:41:55.316Z,998.7
2017-12-31T06:42:35.890Z,998.64
2017-12-31T06:43:16.430Z,998.64
2017-12-31T06:43:56.994Z,998.61
2017-12-31T06:44:37.533Z,998.65
2017-12-31T06:45:18.080Z,998.67
2017-12-31T06:45:58.624Z,998.68
2017-12-31T06:46:39.178Z,998.58
2017-12-31T06:47:19.701Z,998.61
2017-12-31T06:48:00.246Z,998.68
2017-12-31T06:48:40.813Z,998.69
2017-12-31T06:49:21.357Z,998.67
2017-12-31T06:50:01.942Z,998.69
2017-12-31T06:50:42.494Z,998.66
2017-12-31T06:51:23.064Z,998.68
2017-12-31T06:52:03.649Z,998.67
2017-12-31T06:52:44.168Z,998.63
2017-12-31T06:53:24.727Z,998.59
2017-12-31T06:54:05.298Z,998.62
2017-12-31T06:54:45.837Z,998.66
2017-12-31T06:55:26.379Z,998.61
2017-12-31T06:56:06.919Z,998.63
2017-12-31T06:56:47.473Z,998.66
2017-12-31T06:57:28.020Z,998.62
2017-12-31T06:58:08.564Z,998.67
2017-12-31T06:58:49.125Z,998.68
2017-12-31T06:59:29.664Z,998.65
2017-12-31T07:00:10.222Z,998.67
2017-12-31T07:00:50.796Z,998.68
2017-12-31T07:01:31.367Z,998.71
2017-12-31T07:02:11.933Z,998.72
2017-12-31T07:02:52.455Z,998.69
2017-12-31T07:03:32.996Z,998.66
2017-12-31T07:04:13.542Z,998.74
2017-12-31T07:04:54.099Z,998.72
2017-12-31T07:05:34.641Z,998.77
2017-12-31T07:06:15.200Z,998.75
2017-12-31T07:06:55.741Z,998.74
2017-12-31T07:07:36.315Z,998.76
2017-12-31T07:08:16.895Z,998.75
2017-12-31T07:08:57.422Z,998.74
2017-12-31T07:09:37.970Z,998.72
2017-12-31T07:10:18.510Z,998.75
2017-12-31T07:10:59.092Z,998.67
2017-12-31T07:11:39.630Z,998.74
2017-12-31T07:12:20.195Z,998.71
2017-12-31T07:13:00.733Z,998.7
2017-12-31T07:13:41.295Z,998.67
2017-12-31T07:14:21.848Z,998.72
2017-12-31T07:15:02.369Z,998.76
2017-12-31T07:15:42.917Z,998.69
2017-12-31T07:16:23.459Z,998.77
2017-12-31T07:17:04.010Z,998.77
2017-12-31T07:17:44.584Z,998.77
2017-12-31T07:18:25.140Z,998.74
2017-12-31T07:19:05.683Z,998.73
2017-12-31T07:19:46.951Z,998.73
2017-12-31T07:20:26.771Z,998.71
2017-12-31T07:21:07.322Z,998.78
2017-12-31T07:21:47.882Z,998.74
2017-12-31T07:22:28.445Z,998.72
2017-12-31T07:23:09.005Z,998.76
2017-12-31T07:23:49.583Z,998.78
2017-12-31T07:24:30.114Z,998.72
2017-12-31T07:25:10.674Z,998.72
2017-12-31T07:25:51.233Z,998.7
2017-12-31T07:26:31.770Z,998.73
2017-12-31T07:27:12.324Z,998.7
2017-12-31T07:27:52.867Z,998.73
2017-12-31T07:28:33.442Z,998.72
2017-12-31T07:29:13.973Z,998.69
2017-12-31T07:29:54.529Z,998.73
2017-12-31T07:30:35.094Z,998.72
2017-12-31T07:31:15.637Z,998.7
2017-12-31T07:31:56.189Z,998.69
2017-12-31T07:32:36.722Z,998.67
2017-12-31T07:33:17.269Z,998.7
2017-12-31T07:33:57.804Z,998.72
2017-12-31T07:34:38.355Z,998.7
2017-12-31T07:35:18.932Z,998.68
2017-12-31T07:35:59.442Z,998.66
2017-12-31T07:36:40.000Z,998.62
2017-12-31T07:37:21.290Z,998.68
2017-12-31T07:38:01.858Z,998.63
2017-12-31T07:38:42.461Z,998.64
2017-12-31T07:39:22.995Z,998.64
2017-12-31T07:40:03.801Z,998.64
2017-12-31T07:40:44.237Z,998.65
2017-12-31T07:41:25.946Z,998.65
2017-12-31T07:42:05.325Z,998.67
2017-12-31T07:42:45.877Z,998.65
2017-12-31T07:43:26.414Z,998.63
2017-12-31T07:44:06.966Z,998.68
2017-12-31T07:44:47.495Z,998.65
2017-12-31T07:45:28.087Z,998.63
2017-12-31T07:46:08.603Z,998.64
2017-12-31T07:46:49.151Z,998.71
2017-12-31T07:47:29.707Z,998.61
2017-12-31T07:48:10.277Z,998.69
2017-12-31T07:48:50.805Z,998.68
2017-12-31T07:49:31.410Z,998.67
2017-12-31T07:50:11.961Z,998.7
2017-12-31T07:50:52.521Z,998.65
2017-12-31T07:51:33.045Z,998.67
2017-12-31T07:52:13.585Z,998.71
2017-12-31T07:52:54.142Z,998.66
2017-12-31T07:53:34.709Z,998.74
2017-12-31T07:54:15.229Z,998.71
2017-12-31T07:54:55.792Z,998.72
2017-12-31T07:55:36.437Z,998.76
2017-12-31T07:56:16.980Z,998.68
2017-12-31T07:56:57.540Z,998.75
2017-12-31T07:57:38.734Z,998.81
2017-12-31T07:58:19.294Z,998.76
2017-12-31T07:58:59.851Z,998.84
2017-12-31T07:59:40.413Z,998.81
2017-12-31T08:00:20.940Z,998.75
2017-12-31T08:01:01.496Z,998.83
2017-12-31T08:01:42.096Z,998.82
2017-12-31T08:02:22.664Z,998.79
2017-12-31T08:03:03.215Z,998.86
2017-12-31T08:03:43.799Z,998.8
2017-12-31T08:04:24.346Z,998.76
2017-12-31T08:05:04.900Z,998.8
2017-12-31T08:05:45.964Z,998.78
2017-12-31T08:06:26.473Z,998.76
2017-12-31T08:07:07.025Z,998.83
2017-12-31T08:07:47.578Z,998.86
2017-12-31T08:08:28.134Z,998.77
2017-12-31T08:09:08.680Z,998.79
2017-12-31T08:09:49.221Z,998.76
2017-12-31T08:10:29.760Z,998.82
2017-12-31T08:11:10.282Z,998.79
2017-12-31T08:11:50.835Z,998.86
2017-12-31T08:12:31.353Z,998.83
2017-12-31T08:13:11.900Z,998.84
2017-12-31T08:13:52.425Z,998.8
2017-12-31T08:14:32.979Z,998.78
2017-12-31T08:15:13.539Z,998.82
2017-12-31T08:15:54.094Z,998.75
2017-12-31T08:16:34.654Z,998.77
2017-12-31T08:17:15.199Z,998.77
2017-12-31T08:17:55.769Z,998.74
2017-12-31T08:18:36.358Z,998.77
2017-12-31T08:19:16.936Z,998.77
2017-12-31T08:19:57.481Z,998.83
2017-12-31T08:20:38.051Z,998.77
2017-12-31T08:21:18.605Z,998.84
2017-12-31T08:21:59.162Z,998.85
2017-12-31T08:22:40.267Z,998.8
2017-12-31T08:23:20.837Z,998.82
2017-12-31T08:24:01.393Z,998.83
2017-12-31T08:24:41.936Z,998.82
2017-12-31T08:25:22.458Z,998.79
2017-12-31T08:26:02.990Z,998.78
2017-12-31T08:26:43.521Z,998.8
2017-12-31T08:27:24.063Z,998.73